Portada
METAR-TAF:

METAR-TAF

Aeroports :

Latakia, Síria

latitud: 35-32N, longitud: 035-46E, altitud: 7 m

Observació

L'informe es va fer fa 2 hores i 8 minuts, a les 04:00 UTC
Vent 2 kt del Est
Temperatura 19°C
Humitat 78%
Pressió 1013 hPa
Visibilitat 10 km o més
Escasses núvols a una alçada de 2600 ft

METAR: OSLK 280400Z 08002KT 9999 FEW026 19/15 Q1013

Hora: 09:08 (06:08 UTC)

Pronòstic

L'informe es va fer fa 2 hores i 8 minuts, a les 04:00 UTC
Pronòstic vàlid del 28 a les 06 UTC al 29 a les 06 UTC
Vent 12 kt del Oest/Sud-Oest
Visibilitat 10 km o més
Escasses núvols a una alçada de 3000 ft
Temporalment
l' 28 a les 18 UTC al 29 a les 06 UTC
Vent 8 kt del Est

TAF: OSLK 280400Z 2806/2906 24012KT 9999 FEW030 TEMPO 2818/2906 09008KT

Observacions i pronòstics meteorològics de més de 4000 aeroports (METAR i TAF).

Les estacions disponibles són els punts grocs i vermells al mapa.

Posi el ratolí al punt desitjat per veure el nom de l'estació.

Feu clic per veure les observacions i els pronòstics meteorològics.

Per canviar el mapa: feu clic els botons verds amb una creu de color negre per apropar; al botó verd amb un guió per allunyar la imatge; o en les fletxes verdes per a mapes adjacents.


METAR-TAF: